Pagina principale
METAR-TAF:

METAR-TAF

Aeroporti :

Aeroporto Internazionale Jinnah

Karachi, Pakistan

latitudine: 24-54N, longitudine: 067-08E, altezza: 21 m

Osservazione

Il bollettino è stato emesso 48 minuti fa, alle 01:25 UTC
Vento calmo
Temperature 22°C
Umidità 94%
Pressione 1014 hPa
Visibilità: 3000 m
fumo

METAR: OPKC 160125Z 00000KT 3000 FU NSC 22/21 Q1014 NOSIG

Ora: 07:13 (02:13 UTC)

Previsione

Il bollettino è stato emesso 4 ore e 43 minuti fa, alle 21:30 UTC
Previsione valida dal 16 alle 00 UTC al 17 alle 06 UTC
Vento 5 kt da ovest/sud-ovest con raffiche fino a 15 kt
Visibilità: 6000 m
Temporaneamente
dal 16 alle 00 UTC al 16 alle 04 UTC
Vento 3 kt da direzioni variabili
Visibilità: 2500 m
fumo
Temporaneamente
dal 17 alle 00 UTC al 17 alle 04 UTC
Vento 3 kt da direzioni variabili
Visibilità: 2500 m
fumo

TAF: OPKC 152130Z 1600/1706 25005G15KT 6000 NSC TEMPO 1600/1604 VRB03KT 2500 FU NSC TEMPO 1700/1704 VRB03KT 2500 FU NSC

Osservazioni e previsioni meteorologiche di più di 4000 aeroporti (messaggi METAR e TAF).

Le stazioni disponibili sono rappresentate dai dischi gialli e rossi sulla carta.

Puntare il mouse per vedere il nome della stazione.

Clicca sopra per visualizzare le osservazioni e previsioni meteorologiche.

Per cambiare la mappa : fare clic sui pulsanti verdi con una croce nera per ingrandire, il pulsante verde con un trattino per diminuire, o sulla freccia verde per le mappe adiacenti.


METAR-TAF: